sensor_id;sensor_type;location;lat;lon;timestamp;temperature;humidity
46730;DHT22;32476;50.002;11.854;2023-08-31T00:02:25;11.10;99.90
46730;DHT22;32476;50.002;11.854;2023-08-31T00:04:52;11.00;99.90
46730;DHT22;32476;50.002;11.854;2023-08-31T00:07:21;11.00;99.90
46730;DHT22;32476;50.002;11.854;2023-08-31T00:09:47;11.00;99.90
46730;DHT22;32476;50.002;11.854;2023-08-31T00:12:15;11.00;99.90
46730;DHT22;32476;50.002;11.854;2023-08-31T00:14:41;10.90;99.90
46730;DHT22;32476;50.002;11.854;2023-08-31T00:17:06;10.90;99.90
46730;DHT22;32476;50.002;11.854;2023-08-31T00:19:34;10.90;99.90
46730;DHT22;32476;50.002;11.854;2023-08-31T00:22:01;10.90;99.90
46730;DHT22;32476;50.002;11.854;2023-08-31T00:24:27;10.90;99.90
46730;DHT22;32476;50.002;11.854;2023-08-31T00:26:59;10.90;99.90
46730;DHT22;32476;50.002;11.854;2023-08-31T00:29:25;10.90;99.90
46730;DHT22;32476;50.002;11.854;2023-08-31T00:31:51;10.90;99.90
46730;DHT22;32476;50.002;11.854;2023-08-31T00:34:20;10.80;99.90
46730;DHT22;32476;50.002;11.854;2023-08-31T00:36:46;10.90;99.90
46730;DHT22;32476;50.002;11.854;2023-08-31T00:39:12;10.90;99.90
46730;DHT22;32476;50.002;11.854;2023-08-31T00:41:39;10.90;99.90
46730;DHT22;32476;50.002;11.854;2023-08-31T00:44:05;10.80;99.90
46730;DHT22;32476;50.002;11.854;2023-08-31T00:46:32;10.80;99.90
46730;DHT22;32476;50.002;11.854;2023-08-31T00:49:00;10.80;99.90
46730;DHT22;32476;50.002;11.854;2023-08-31T00:51:29;10.80;99.90
46730;DHT22;32476;50.002;11.854;2023-08-31T00:53:55;10.80;99.90
46730;DHT22;32476;50.002;11.854;2023-08-31T00:56:26;10.80;99.90
46730;DHT22;32476;50.002;11.854;2023-08-31T00:58:52;10.80;99.90
46730;DHT22;32476;50.002;11.854;2023-08-31T01:10:02;10.70;99.90
46730;DHT22;32476;50.002;11.854;2023-08-31T01:12:52;10.70;99.90
46730;DHT22;32476;50.002;11.854;2023-08-31T01:15:22;10.70;99.90
46730;DHT22;32476;50.002;11.854;2023-08-31T01:17:50;10.70;99.90
46730;DHT22;32476;50.002;11.854;2023-08-31T01:20:34;10.60;99.90
46730;DHT22;32476;50.002;11.854;2023-08-31T01:23:22;10.60;99.90
46730;DHT22;32476;50.002;11.854;2023-08-31T01:25:55;10.50;99.90
46730;DHT22;32476;50.002;11.854;2023-08-31T01:28:22;10.50;99.90
46730;DHT22;32476;50.002;11.854;2023-08-31T01:30:48;10.40;99.90
46730;DHT22;32476;50.002;11.854;2023-08-31T01:33:15;10.50;99.90
46730;DHT22;32476;50.002;11.854;2023-08-31T01:35:45;10.50;99.90
46730;DHT22;32476;50.002;11.854;2023-08-31T01:38:16;10.40;99.90
46730;DHT22;32476;50.002;11.854;2023-08-31T01:40:52;10.40;99.90
46730;DHT22;32476;50.002;11.854;2023-08-31T01:43:22;10.40;99.90
46730;DHT22;32476;50.002;11.854;2023-08-31T01:45:49;10.50;99.90
46730;DHT22;32476;50.002;11.854;2023-08-31T01:48:16;10.50;99.90
46730;DHT22;32476;50.002;11.854;2023-08-31T01:50:42;10.40;99.90
46730;DHT22;32476;50.002;11.854;2023-08-31T01:53:10;10.40;99.90
46730;DHT22;32476;50.002;11.854;2023-08-31T01:55:38;10.40;99.90
46730;DHT22;32476;50.002;11.854;2023-08-31T01:58:04;10.40;99.90
46730;DHT22;32476;50.002;11.854;2023-08-31T02:00:31;10.40;99.90
46730;DHT22;32476;50.002;11.854;2023-08-31T02:03:01;10.40;99.90
46730;DHT22;32476;50.002;11.854;2023-08-31T02:05:27;10.40;99.90
46730;DHT22;32476;50.002;11.854;2023-08-31T02:07:54;10.40;99.90
46730;DHT22;32476;50.002;11.854;2023-08-31T02:10:20;10.40;99.90
46730;DHT22;32476;50.002;11.854;2023-08-31T02:12:46;10.40;99.90
46730;DHT22;32476;50.002;11.854;2023-08-31T02:15:14;10.40;99.90
46730;DHT22;32476;50.002;11.854;2023-08-31T02:17:40;10.40;99.90
46730;DHT22;32476;50.002;11.854;2023-08-31T02:20:06;10.40;99.90
46730;DHT22;32476;50.002;11.854;2023-08-31T02:22:35;10.40;99.90
46730;DHT22;32476;50.002;11.854;2023-08-31T02:25:01;10.50;99.90
46730;DHT22;32476;50.002;11.854;2023-08-31T02:27:28;10.50;99.90
46730;DHT22;32476;50.002;11.854;2023-08-31T02:29:55;10.50;99.90
46730;DHT22;32476;50.002;11.854;2023-08-31T02:32:21;10.50;99.90
46730;DHT22;32476;50.002;11.854;2023-08-31T02:34:47;10.50;99.90
46730;DHT22;32476;50.002;11.854;2023-08-31T02:37:14;10.50;99.90
46730;DHT22;32476;50.002;11.854;2023-08-31T02:39:40;10.40;99.90
46730;DHT22;32476;50.002;11.854;2023-08-31T02:42:06;10.50;99.90
46730;DHT22;32476;50.002;11.854;2023-08-31T02:44:35;10.40;99.90
46730;DHT22;32476;50.002;11.854;2023-08-31T02:47:01;10.40;99.90
46730;DHT22;32476;50.002;11.854;2023-08-31T02:49:27;10.40;99.90
46730;DHT22;32476;50.002;11.854;2023-08-31T02:51:55;10.40;99.90
46730;DHT22;32476;50.002;11.854;2023-08-31T02:54:21;10.40;99.90
46730;DHT22;32476;50.002;11.854;2023-08-31T02:56:47;10.40;99.90
46730;DHT22;32476;50.002;11.854;2023-08-31T02:59:14;10.40;99.90
46730;DHT22;32476;50.002;11.854;2023-08-31T03:01:40;10.40;99.90
46730;DHT22;32476;50.002;11.854;2023-08-31T03:04:06;10.40;99.90
46730;DHT22;32476;50.002;11.854;2023-08-31T03:06:33;10.40;99.90
46730;DHT22;32476;50.002;11.854;2023-08-31T03:08:59;10.30;99.90
46730;DHT22;32476;50.002;11.854;2023-08-31T03:11:25;10.40;99.90
46730;DHT22;32476;50.002;11.854;2023-08-31T03:13:52;10.40;99.90
46730;DHT22;32476;50.002;11.854;2023-08-31T03:16:18;10.30;99.90
46730;DHT22;32476;50.002;11.854;2023-08-31T03:18:44;10.30;99.90
46730;DHT22;32476;50.002;11.854;2023-08-31T03:21:12;10.30;99.90
46730;DHT22;32476;50.002;11.854;2023-08-31T03:23:38;10.30;99.90
46730;DHT22;32476;50.002;11.854;2023-08-31T03:26:08;10.20;99.90
46730;DHT22;32476;50.002;11.854;2023-08-31T03:28:35;10.20;99.90
46730;DHT22;32476;50.002;11.854;2023-08-31T03:31:01;10.20;99.90
46730;DHT22;32476;50.002;11.854;2023-08-31T03:33:27;10.20;99.90
46730;DHT22;32476;50.002;11.854;2023-08-31T03:36:03;10.10;99.90
46730;DHT22;32476;50.002;11.854;2023-08-31T03:38:33;10.10;99.90
46730;DHT22;32476;50.002;11.854;2023-08-31T03:41:04;10.10;99.90
46730;DHT22;32476;50.002;11.854;2023-08-31T03:43:30;10.10;99.90
46730;DHT22;32476;50.002;11.854;2023-08-31T03:45:56;10.10;99.90
46730;DHT22;32476;50.002;11.854;2023-08-31T03:48:24;10.10;99.90
46730;DHT22;32476;50.002;11.854;2023-08-31T03:50:51;10.10;99.90
46730;DHT22;32476;50.002;11.854;2023-08-31T03:53:18;10.10;99.90
46730;DHT22;32476;50.002;11.854;2023-08-31T03:55:46;10.00;99.90
46730;DHT22;32476;50.002;11.854;2023-08-31T03:58:12;10.10;99.90
46730;DHT22;32476;50.002;11.854;2023-08-31T04:00:38;10.10;99.90
46730;DHT22;32476;50.002;11.854;2023-08-31T04:03:06;10.00;99.90
46730;DHT22;32476;50.002;11.854;2023-08-31T04:05:33;10.00;99.90
46730;DHT22;32476;50.002;11.854;2023-08-31T04:08:00;10.00;99.90
46730;DHT22;32476;50.002;11.854;2023-08-31T04:10:28;10.00;99.90
46730;DHT22;32476;50.002;11.854;2023-08-31T04:12:55;10.00;99.90
46730;DHT22;32476;50.002;11.854;2023-08-31T04:15:21;9.90;99.90
46730;DHT22;32476;50.002;11.854;2023-08-31T04:17:49;9.90;99.90
46730;DHT22;32476;50.002;11.854;2023-08-31T04:20:17;9.90;99.90
46730;DHT22;32476;50.002;11.854;2023-08-31T04:22:43;10.00;99.90
46730;DHT22;32476;50.002;11.854;2023-08-31T04:25:11;10.00;99.90
46730;DHT22;32476;50.002;11.854;2023-08-31T04:27:37;10.00;99.90
46730;DHT22;32476;50.002;11.854;2023-08-31T04:30:05;10.00;99.90
46730;DHT22;32476;50.002;11.854;2023-08-31T04:32:34;10.00;99.90
46730;DHT22;32476;50.002;11.854;2023-08-31T04:35:02;10.00;99.90
46730;DHT22;32476;50.002;11.854;2023-08-31T04:37:32;10.00;99.90
46730;DHT22;32476;50.002;11.854;2023-08-31T04:40:00;10.00;99.90
46730;DHT22;32476;50.002;11.854;2023-08-31T04:42:26;10.00;99.90
46730;DHT22;32476;50.002;11.854;2023-08-31T04:44:52;10.00;99.90
46730;DHT22;32476;50.002;11.854;2023-08-31T04:47:19;10.00;99.90
46730;DHT22;32476;50.002;11.854;2023-08-31T04:49:45;10.00;99.90
46730;DHT22;32476;50.002;11.854;2023-08-31T04:52:11;9.90;99.90
46730;DHT22;32476;50.002;11.854;2023-08-31T04:54:39;10.00;99.90
46730;DHT22;32476;50.002;11.854;2023-08-31T04:57:05;10.00;99.90
46730;DHT22;32476;50.002;11.854;2023-08-31T04:59:32;9.90;99.90
46730;DHT22;32476;50.002;11.854;2023-08-31T05:02:00;10.00;99.90
46730;DHT22;32476;50.002;11.854;2023-08-31T05:04:26;10.00;99.90
46730;DHT22;32476;50.002;11.854;2023-08-31T05:06:54;10.00;99.90
46730;DHT22;32476;50.002;11.854;2023-08-31T05:09:23;10.00;99.90
46730;DHT22;32476;50.002;11.854;2023-08-31T05:11:49;10.10;99.90
46730;DHT22;32476;50.002;11.854;2023-08-31T05:14:15;10.10;99.90
46730;DHT22;32476;50.002;11.854;2023-08-31T05:16:43;10.00;99.90
46730;DHT22;32476;50.002;11.854;2023-08-31T05:19:09;10.10;99.90
46730;DHT22;32476;50.002;11.854;2023-08-31T05:21:35;10.00;99.90
46730;DHT22;32476;50.002;11.854;2023-08-31T05:24:02;10.00;99.90
46730;DHT22;32476;50.002;11.854;2023-08-31T05:26:28;10.10;99.90
46730;DHT22;32476;50.002;11.854;2023-08-31T05:28:54;10.10;99.90
46730;DHT22;32476;50.002;11.854;2023-08-31T05:31:22;10.10;99.90
46730;DHT22;32476;50.002;11.854;2023-08-31T05:33:47;10.10;99.90
46730;DHT22;32476;50.002;11.854;2023-08-31T05:36:13;10.20;99.90
46730;DHT22;32476;50.002;11.854;2023-08-31T05:38:41;10.20;99.90
46730;DHT22;32476;50.002;11.854;2023-08-31T05:41:08;10.20;99.90
46730;DHT22;32476;50.002;11.854;2023-08-31T05:43:35;10.30;99.90
46730;DHT22;32476;50.002;11.854;2023-08-31T05:46:03;10.20;99.90
46730;DHT22;32476;50.002;11.854;2023-08-31T05:48:29;10.20;99.90
46730;DHT22;32476;50.002;11.854;2023-08-31T05:50:55;10.20;99.90
46730;DHT22;32476;50.002;11.854;2023-08-31T05:53:23;10.20;99.90
46730;DHT22;32476;50.002;11.854;2023-08-31T05:55:49;10.20;99.90
46730;DHT22;32476;50.002;11.854;2023-08-31T05:58:15;10.20;99.90
46730;DHT22;32476;50.002;11.854;2023-08-31T06:00:42;10.30;99.90
46730;DHT22;32476;50.002;11.854;2023-08-31T06:03:08;10.30;99.90
46730;DHT22;32476;50.002;11.854;2023-08-31T06:05:36;10.30;99.90
46730;DHT22;32476;50.002;11.854;2023-08-31T06:08:03;10.40;99.90
46730;DHT22;32476;50.002;11.854;2023-08-31T06:10:30;10.40;99.90
46730;DHT22;32476;50.002;11.854;2023-08-31T06:12:56;10.50;99.90
46730;DHT22;32476;50.002;11.854;2023-08-31T06:15:23;10.50;99.90
46730;DHT22;32476;50.002;11.854;2023-08-31T06:17:49;10.50;99.90
46730;DHT22;32476;50.002;11.854;2023-08-31T06:20:15;10.60;99.90
46730;DHT22;32476;50.002;11.854;2023-08-31T06:22:42;10.70;99.90
46730;DHT22;32476;50.002;11.854;2023-08-31T06:25:08;10.70;99.90
46730;DHT22;32476;50.002;11.854;2023-08-31T06:27:36;10.90;99.90
46730;DHT22;32476;50.002;11.854;2023-08-31T06:30:04;11.10;99.90
46730;DHT22;32476;50.002;11.854;2023-08-31T06:32:33;11.20;99.90
46730;DHT22;32476;50.002;11.854;2023-08-31T06:34:59;11.10;99.90
46730;DHT22;32476;50.002;11.854;2023-08-31T06:37:26;11.00;99.90
46730;DHT22;32476;50.002;11.854;2023-08-31T06:39:52;10.90;99.90
46730;DHT22;32476;50.002;11.854;2023-08-31T06:42:18;10.80;99.90
46730;DHT22;32476;50.002;11.854;2023-08-31T06:44:46;10.90;99.90
46730;DHT22;32476;50.002;11.854;2023-08-31T06:47:12;10.90;99.90
46730;DHT22;32476;50.002;11.854;2023-08-31T06:49:39;10.90;99.90
46730;DHT22;32476;50.002;11.854;2023-08-31T06:52:06;10.90;99.90
46730;DHT22;32476;50.002;11.854;2023-08-31T06:54:33;10.90;99.90
46730;DHT22;32476;50.002;11.854;2023-08-31T06:57:00;11.00;99.90
46730;DHT22;32476;50.002;11.854;2023-08-31T06:59:27;11.00;99.90
46730;DHT22;32476;50.002;11.854;2023-08-31T07:01:53;11.00;99.90
46730;DHT22;32476;50.002;11.854;2023-08-31T07:04:19;11.20;99.90
46730;DHT22;32476;50.002;11.854;2023-08-31T07:06:47;11.30;99.90
46730;DHT22;32476;50.002;11.854;2023-08-31T07:09:13;11.20;99.90
46730;DHT22;32476;50.002;11.854;2023-08-31T07:11:39;11.20;99.90
46730;DHT22;32476;50.002;11.854;2023-08-31T07:14:06;11.10;99.90
46730;DHT22;32476;50.002;11.854;2023-08-31T07:16:32;11.20;99.90
46730;DHT22;32476;50.002;11.854;2023-08-31T07:18:58;11.20;99.90
46730;DHT22;32476;50.002;11.854;2023-08-31T07:21:25;11.20;99.90
46730;DHT22;32476;50.002;11.854;2023-08-31T07:23:52;11.20;99.90
46730;DHT22;32476;50.002;11.854;2023-08-31T07:26:18;11.30;99.90
46730;DHT22;32476;50.002;11.854;2023-08-31T07:28:46;11.20;99.90
46730;DHT22;32476;50.002;11.854;2023-08-31T07:31:12;11.20;99.90
46730;DHT22;32476;50.002;11.854;2023-08-31T07:33:39;11.30;99.90
46730;DHT22;32476;50.002;11.854;2023-08-31T07:36:06;11.30;99.90
46730;DHT22;32476;50.002;11.854;2023-08-31T07:38:33;11.20;99.90
46730;DHT22;32476;50.002;11.854;2023-08-31T07:40:59;11.10;99.90
46730;DHT22;32476;50.002;11.854;2023-08-31T07:43:27;11.10;99.90
46730;DHT22;32476;50.002;11.854;2023-08-31T07:45:53;11.10;99.90
46730;DHT22;32476;50.002;11.854;2023-08-31T07:48:19;11.00;99.90
46730;DHT22;32476;50.002;11.854;2023-08-31T07:50:46;11.10;99.90
46730;DHT22;32476;50.002;11.854;2023-08-31T07:53:14;11.40;99.90
46730;DHT22;32476;50.002;11.854;2023-08-31T07:55:40;11.60;99.90
46730;DHT22;32476;50.002;11.854;2023-08-31T07:58:08;11.60;99.90
46730;DHT22;32476;50.002;11.854;2023-08-31T08:00:34;11.60;99.90
46730;DHT22;32476;50.002;11.854;2023-08-31T08:03:00;11.60;99.90
46730;DHT22;32476;50.002;11.854;2023-08-31T08:05:28;11.50;99.90
46730;DHT22;32476;50.002;11.854;2023-08-31T08:07:54;11.50;99.90
46730;DHT22;32476;50.002;11.854;2023-08-31T08:10:20;11.50;99.90
46730;DHT22;32476;50.002;11.854;2023-08-31T08:12:47;11.50;99.90
46730;DHT22;32476;50.002;11.854;2023-08-31T08:15:13;11.50;99.90
46730;DHT22;32476;50.002;11.854;2023-08-31T08:17:39;11.40;99.90
46730;DHT22;32476;50.002;11.854;2023-08-31T08:20:07;11.30;99.90
46730;DHT22;32476;50.002;11.854;2023-08-31T08:22:34;11.30;99.90
46730;DHT22;32476;50.002;11.854;2023-08-31T08:25:01;11.30;99.90
46730;DHT22;32476;50.002;11.854;2023-08-31T08:27:29;11.50;99.90
46730;DHT22;32476;50.002;11.854;2023-08-31T08:29:57;11.60;99.90
46730;DHT22;32476;50.002;11.854;2023-08-31T08:32:23;11.50;99.90
46730;DHT22;32476;50.002;11.854;2023-08-31T08:34:51;11.40;99.90
46730;DHT22;32476;50.002;11.854;2023-08-31T08:37:17;11.40;99.90
46730;DHT22;32476;50.002;11.854;2023-08-31T08:39:43;11.30;99.90
46730;DHT22;32476;50.002;11.854;2023-08-31T08:42:11;11.30;99.90
46730;DHT22;32476;50.002;11.854;2023-08-31T08:44:38;11.50;99.90
46730;DHT22;32476;50.002;11.854;2023-08-31T08:47:05;11.60;99.90
46730;DHT22;32476;50.002;11.854;2023-08-31T08:49:33;11.50;99.90
46730;DHT22;32476;50.002;11.854;2023-08-31T08:52:02;11.50;99.90
46730;DHT22;32476;50.002;11.854;2023-08-31T08:54:28;11.50;99.90
46730;DHT22;32476;50.002;11.854;2023-08-31T08:56:56;11.80;99.90
46730;DHT22;32476;50.002;11.854;2023-08-31T08:59:24;12.10;99.90
46730;DHT22;32476;50.002;11.854;2023-08-31T09:01:50;12.00;99.90
46730;DHT22;32476;50.002;11.854;2023-08-31T09:04:18;12.30;99.90
46730;DHT22;32476;50.002;11.854;2023-08-31T09:06:44;12.20;99.90
46730;DHT22;32476;50.002;11.854;2023-08-31T09:09:11;12.10;99.90
46730;DHT22;32476;50.002;11.854;2023-08-31T09:11:38;12.10;99.90
46730;DHT22;32476;50.002;11.854;2023-08-31T09:14:34;12.10;99.90
46730;DHT22;32476;50.002;11.854;2023-08-31T09:17:01;12.70;99.90
46730;DHT22;32476;50.002;11.854;2023-08-31T09:19:27;13.40;99.90
46730;DHT22;32476;50.002;11.854;2023-08-31T09:21:56;13.80;99.90
46730;DHT22;32476;50.002;11.854;2023-08-31T09:24:24;13.90;99.90
46730;DHT22;32476;50.002;11.854;2023-08-31T09:26:54;13.70;99.90
46730;DHT22;32476;50.002;11.854;2023-08-31T09:29:25;14.00;99.90
46730;DHT22;32476;50.002;11.854;2023-08-31T09:31:51;14.20;99.90
46730;DHT22;32476;50.002;11.854;2023-08-31T09:34:18;14.30;99.90
46730;DHT22;32476;50.002;11.854;2023-08-31T09:36:45;14.00;99.90
46730;DHT22;32476;50.002;11.854;2023-08-31T09:39:13;13.70;99.90
46730;DHT22;32476;50.002;11.854;2023-08-31T09:41:55;13.90;99.90
46730;DHT22;32476;50.002;11.854;2023-08-31T09:44:23;14.00;99.90
46730;DHT22;32476;50.002;11.854;2023-08-31T09:46:49;14.00;99.90
46730;DHT22;32476;50.002;11.854;2023-08-31T09:49:16;14.20;99.90
46730;DHT22;32476;50.002;11.854;2023-08-31T09:51:45;14.30;99.90
46730;DHT22;32476;50.002;11.854;2023-08-31T09:54:16;14.50;99.90
46730;DHT22;32476;50.002;11.854;2023-08-31T09:56:46;15.00;99.90
46730;DHT22;32476;50.002;11.854;2023-08-31T09:59:17;15.30;99.90
46730;DHT22;32476;50.002;11.854;2023-08-31T10:01:45;15.30;99.90
46730;DHT22;32476;50.002;11.854;2023-08-31T10:04:13;15.30;99.90
46730;DHT22;32476;50.002;11.854;2023-08-31T10:06:40;15.60;99.90
46730;DHT22;32476;50.002;11.854;2023-08-31T10:09:06;15.10;99.90
46730;DHT22;32476;50.002;11.854;2023-08-31T10:11:38;14.20;99.90
46730;DHT22;32476;50.002;11.854;2023-08-31T10:14:04;14.20;99.90
46730;DHT22;32476;50.002;11.854;2023-08-31T10:16:32;14.10;99.90
46730;DHT22;32476;50.002;11.854;2023-08-31T10:18:59;13.90;99.90
46730;DHT22;32476;50.002;11.854;2023-08-31T10:21:26;13.50;99.90
46730;DHT22;32476;50.002;11.854;2023-08-31T10:23:52;13.10;99.90
46730;DHT22;32476;50.002;11.854;2023-08-31T10:26:30;13.20;99.90
46730;DHT22;32476;50.002;11.854;2023-08-31T10:28:58;14.10;99.90
46730;DHT22;32476;50.002;11.854;2023-08-31T10:31:33;14.70;99.90
46730;DHT22;32476;50.002;11.854;2023-08-31T10:34:04;15.00;99.90
46730;DHT22;32476;50.002;11.854;2023-08-31T10:36:41;15.40;99.90
46730;DHT22;32476;50.002;11.854;2023-08-31T10:39:19;15.50;99.90
46730;DHT22;32476;50.002;11.854;2023-08-31T10:41:54;14.90;99.90
46730;DHT22;32476;50.002;11.854;2023-08-31T10:44:25;15.30;99.90
46730;DHT22;32476;50.002;11.854;2023-08-31T10:46:54;15.50;99.90
46730;DHT22;32476;50.002;11.854;2023-08-31T10:49:23;15.40;99.90
46730;DHT22;32476;50.002;11.854;2023-08-31T10:52:19;16.00;99.90
46730;DHT22;32476;50.002;11.854;2023-08-31T10:54:47;16.20;99.90
46730;DHT22;32476;50.002;11.854;2023-08-31T10:57:29;15.90;99.90
46730;DHT22;32476;50.002;11.854;2023-08-31T10:59:58;16.20;99.90
46730;DHT22;32476;50.002;11.854;2023-08-31T11:07:35;16.50;99.90
46730;DHT22;32476;50.002;11.854;2023-08-31T11:10:20;16.00;99.90
46730;DHT22;32476;50.002;11.854;2023-08-31T11:12:51;15.80;99.90
46730;DHT22;32476;50.002;11.854;2023-08-31T11:15:24;15.40;99.90
46730;DHT22;32476;50.002;11.854;2023-08-31T11:17:55;15.40;99.90
46730;DHT22;32476;50.002;11.854;2023-08-31T11:20:24;15.00;99.90
46730;DHT22;32476;50.002;11.854;2023-08-31T11:22:54;14.60;99.90
46730;DHT22;32476;50.002;11.854;2023-08-31T11:25:21;14.80;99.90
46730;DHT22;32476;50.002;11.854;2023-08-31T11:30:21;15.20;99.90
46730;DHT22;32476;50.002;11.854;2023-08-31T11:32:50;15.20;99.90
46730;DHT22;32476;50.002;11.854;2023-08-31T11:35:19;15.30;99.90
46730;DHT22;32476;50.002;11.854;2023-08-31T11:37:50;15.60;99.90
46730;DHT22;32476;50.002;11.854;2023-08-31T11:40:19;15.80;99.90
46730;DHT22;32476;50.002;11.854;2023-08-31T11:42:45;16.00;99.90
46730;DHT22;32476;50.002;11.854;2023-08-31T11:45:13;16.40;99.90
46730;DHT22;32476;50.002;11.854;2023-08-31T11:47:43;16.80;99.90
46730;DHT22;32476;50.002;11.854;2023-08-31T11:50:11;16.30;99.90
46730;DHT22;32476;50.002;11.854;2023-08-31T11:52:38;16.00;99.90
46730;DHT22;32476;50.002;11.854;2023-08-31T11:55:16;15.70;99.90
46730;DHT22;32476;50.002;11.854;2023-08-31T11:57:53;15.30;99.90
46730;DHT22;32476;50.002;11.854;2023-08-31T12:00:22;15.70;99.90
46730;DHT22;32476;50.002;11.854;2023-08-31T12:03:00;16.50;99.90
46730;DHT22;32476;50.002;11.854;2023-08-31T12:05:28;17.00;99.90
46730;DHT22;32476;50.002;11.854;2023-08-31T12:07:55;17.60;99.90
46730;DHT22;32476;50.002;11.854;2023-08-31T12:10:24;16.90;99.90
46730;DHT22;32476;50.002;11.854;2023-08-31T12:12:52;17.00;99.90
46730;DHT22;32476;50.002;11.854;2023-08-31T12:15:18;16.90;99.90
46730;DHT22;32476;50.002;11.854;2023-08-31T12:17:48;17.20;99.90
46730;DHT22;32476;50.002;11.854;2023-08-31T12:20:25;16.90;99.90
46730;DHT22;32476;50.002;11.854;2023-08-31T12:22:52;16.80;99.90
46730;DHT22;32476;50.002;11.854;2023-08-31T12:25:21;16.80;99.90
46730;DHT22;32476;50.002;11.854;2023-08-31T12:27:49;16.50;99.90
46730;DHT22;32476;50.002;11.854;2023-08-31T12:30:16;16.20;99.90
46730;DHT22;32476;50.002;11.854;2023-08-31T12:32:42;15.80;99.90
46730;DHT22;32476;50.002;11.854;2023-08-31T12:35:09;15.40;99.90
46730;DHT22;32476;50.002;11.854;2023-08-31T12:37:37;15.10;99.90
46730;DHT22;32476;50.002;11.854;2023-08-31T12:40:04;14.90;99.90
46730;DHT22;32476;50.002;11.854;2023-08-31T12:42:34;14.80;99.90
46730;DHT22;32476;50.002;11.854;2023-08-31T12:44:59;14.80;99.90
46730;DHT22;32476;50.002;11.854;2023-08-31T12:47:25;14.70;99.90
46730;DHT22;32476;50.002;11.854;2023-08-31T12:49:53;14.70;99.90
46730;DHT22;32476;50.002;11.854;2023-08-31T12:52:19;14.60;99.90
46730;DHT22;32476;50.002;11.854;2023-08-31T12:54:45;14.50;99.90
46730;DHT22;32476;50.002;11.854;2023-08-31T12:57:12;14.20;99.90
46730;DHT22;32476;50.002;11.854;2023-08-31T12:59:38;13.50;99.90
46730;DHT22;32476;50.002;11.854;2023-08-31T13:02:04;13.00;99.90
46730;DHT22;32476;50.002;11.854;2023-08-31T13:04:37;12.70;99.90
46730;DHT22;32476;50.002;11.854;2023-08-31T13:07:03;12.30;99.90
46730;DHT22;32476;50.002;11.854;2023-08-31T13:09:30;12.00;99.90
46730;DHT22;32476;50.002;11.854;2023-08-31T13:11:58;11.80;99.90
46730;DHT22;32476;50.002;11.854;2023-08-31T13:14:24;11.90;99.90
46730;DHT22;32476;50.002;11.854;2023-08-31T13:16:50;12.10;99.90
46730;DHT22;32476;50.002;11.854;2023-08-31T13:19:17;12.20;99.90
46730;DHT22;32476;50.002;11.854;2023-08-31T13:21:43;12.80;99.90
46730;DHT22;32476;50.002;11.854;2023-08-31T13:24:11;13.20;99.90
46730;DHT22;32476;50.002;11.854;2023-08-31T13:26:38;13.30;99.90
46730;DHT22;32476;50.002;11.854;2023-08-31T13:29:04;13.90;99.90
46730;DHT22;32476;50.002;11.854;2023-08-31T13:31:30;14.00;99.90
46730;DHT22;32476;50.002;11.854;2023-08-31T13:33:58;14.30;99.90
46730;DHT22;32476;50.002;11.854;2023-08-31T13:36:24;14.70;99.90
46730;DHT22;32476;50.002;11.854;2023-08-31T13:38:50;14.90;99.90
46730;DHT22;32476;50.002;11.854;2023-08-31T13:41:17;14.70;99.90
46730;DHT22;32476;50.002;11.854;2023-08-31T13:43:43;14.70;99.90
46730;DHT22;32476;50.002;11.854;2023-08-31T13:46:09;15.30;99.90
46730;DHT22;32476;50.002;11.854;2023-08-31T13:48:36;15.30;99.90
46730;DHT22;32476;50.002;11.854;2023-08-31T13:51:03;15.00;99.90
46730;DHT22;32476;50.002;11.854;2023-08-31T13:53:28;15.30;99.90
46730;DHT22;32476;50.002;11.854;2023-08-31T13:55:56;15.60;99.90
46730;DHT22;32476;50.002;11.854;2023-08-31T13:58:22;15.70;99.90
46730;DHT22;32476;50.002;11.854;2023-08-31T14:00:48;15.50;99.90
46730;DHT22;32476;50.002;11.854;2023-08-31T14:03:16;15.80;99.90
46730;DHT22;32476;50.002;11.854;2023-08-31T14:05:42;16.00;99.90
46730;DHT22;32476;50.002;11.854;2023-08-31T14:08:13;15.60;99.90
46730;DHT22;32476;50.002;11.854;2023-08-31T14:10:40;15.60;99.90
46730;DHT22;32476;50.002;11.854;2023-08-31T14:13:07;15.60;99.90
46730;DHT22;32476;50.002;11.854;2023-08-31T14:15:33;15.60;99.90
46730;DHT22;32476;50.002;11.854;2023-08-31T14:18:00;15.70;99.90
46730;DHT22;32476;50.002;11.854;2023-08-31T14:20:26;15.50;99.90
46730;DHT22;32476;50.002;11.854;2023-08-31T14:22:52;15.40;99.90
46730;DHT22;32476;50.002;11.854;2023-08-31T14:25:19;15.50;99.90
46730;DHT22;32476;50.002;11.854;2023-08-31T14:27:49;15.00;99.90
46730;DHT22;32476;50.002;11.854;2023-08-31T14:30:15;15.60;99.90
46730;DHT22;32476;50.002;11.854;2023-08-31T14:32:42;15.80;99.90
46730;DHT22;32476;50.002;11.854;2023-08-31T14:35:08;15.50;99.90
46730;DHT22;32476;50.002;11.854;2023-08-31T14:37:34;15.30;99.90
46730;DHT22;32476;50.002;11.854;2023-08-31T14:40:02;15.10;99.90
46730;DHT22;32476;50.002;11.854;2023-08-31T14:42:28;14.80;99.90
46730;DHT22;32476;50.002;11.854;2023-08-31T14:44:54;14.60;99.90
46730;DHT22;32476;50.002;11.854;2023-08-31T14:47:22;14.60;99.90
46730;DHT22;32476;50.002;11.854;2023-08-31T14:49:48;14.60;99.90
46730;DHT22;32476;50.002;11.854;2023-08-31T14:52:14;15.00;99.90
46730;DHT22;32476;50.002;11.854;2023-08-31T14:54:41;15.30;99.90
46730;DHT22;32476;50.002;11.854;2023-08-31T14:57:07;15.40;99.90
46730;DHT22;32476;50.002;11.854;2023-08-31T14:59:33;15.00;99.90
46730;DHT22;32476;50.002;11.854;2023-08-31T15:02:00;14.80;99.90
46730;DHT22;32476;50.002;11.854;2023-08-31T15:04:31;14.70;99.90
46730;DHT22;32476;50.002;11.854;2023-08-31T15:06:57;14.60;99.90
46730;DHT22;32476;50.002;11.854;2023-08-31T15:09:25;14.70;99.90
46730;DHT22;32476;50.002;11.854;2023-08-31T15:11:52;14.70;99.90
46730;DHT22;32476;50.002;11.854;2023-08-31T15:14:18;15.00;99.90
46730;DHT22;32476;50.002;11.854;2023-08-31T15:16:45;15.40;99.90
46730;DHT22;32476;50.002;11.854;2023-08-31T15:19:11;15.30;99.90
46730;DHT22;32476;50.002;11.854;2023-08-31T15:21:37;15.10;99.90
46730;DHT22;32476;50.002;11.854;2023-08-31T15:24:05;15.10;99.90
46730;DHT22;32476;50.002;11.854;2023-08-31T15:26:31;15.10;99.90
46730;DHT22;32476;50.002;11.854;2023-08-31T15:28:57;15.30;99.90
46730;DHT22;32476;50.002;11.854;2023-08-31T15:31:25;15.70;99.90
46730;DHT22;32476;50.002;11.854;2023-08-31T15:33:51;15.60;99.90
46730;DHT22;32476;50.002;11.854;2023-08-31T15:36:17;15.60;99.90